Observation data for Andrews on 05/26/2019      Previous  Date  Next       Current Mesonet Observations  Soil Data  Daily Summary Page  Observations in Plain Language
KANS 260500Z 16011KT 22/16 A2996 RMK A01 T02220161  RH  070%=      5-min Rain = 0
KANS 260505Z 16011G16KT 22/16 A2995 RMK A01 T02220161  RH  070%=      5-min Rain = 0
KANS 260510Z 16012G17KT 22/16 A2995 RMK A01 T02230161  RH  069%=      5-min Rain = 0
KANS 260515Z 17012KT 22/16 A2995 RMK A01 T02240160  RH  069%=      5-min Rain = 0
KANS 260520Z 16012KT 22/16 A2995 RMK A01 T02240160  RH  069%=      5-min Rain = 0
KANS 260525Z 16011G18KT 23/16 A2995 RMK A01 T02250160  RH  068%=      5-min Rain = 0
KANS 260530Z 16012G19KT 23/16 A2995 RMK A01 T02250160  RH  068%=      5-min Rain = 0
KANS 260535Z 16012G17KT 23/16 A2995 RMK A01 T02270160  RH  067%=      5-min Rain = 0
KANS 260540Z 16011KT 23/16 A2995 RMK A01 T02270160  RH  067%=      5-min Rain = 0
KANS 260545Z 16012KT 23/16 A2995 RMK A01 T02280160  RH  067%=      5-min Rain = 0
KANS 260550Z 16011KT 23/16 A2995 RMK A01 T02280160  RH  067%=      5-min Rain = 0
KANS 260555Z 16011G16KT 23/16 A2994 RMK A01 T02280160  RH  067%=      5-min Rain = 0
KANS 260600Z 16013G19KT 23/16 A2994 RMK A01 T02290160  RH  067%=      5-min Rain = 0
KANS 260605Z 16011G16KT 23/16 A2995 RMK A01 T02290160  RH  066%=      5-min Rain = 0
KANS 260610Z 16012G18KT 23/16 A2995 RMK A01 T02290160  RH  067%=      5-min Rain = 0
KANS 260615Z 16012G18KT 23/16 A2995 RMK A01 T02300160  RH  066%=      5-min Rain = 0
KANS 260620Z 16011KT 23/16 A2995 RMK A01 T02300160  RH  066%=      5-min Rain = 0
KANS 260625Z 16012KT 23/16 A2995 RMK A01 T02300160  RH  066%=      5-min Rain = 0
KANS 260630Z 16012G19KT 23/16 A2995 RMK A01 T02300160  RH  066%=      5-min Rain = 0
KANS 260635Z 16010G15KT 23/16 A2994 RMK A01 T02300160  RH  066%=      5-min Rain = 0
KANS 260640Z 16012G18KT 23/16 A2994 RMK A01 T02290160  RH  066%=      5-min Rain = 0
KANS 260645Z 16012G19KT 23/16 A2994 RMK A01 T02300160  RH  066%=      5-min Rain = 0
KANS 260650Z 16013G18KT 23/16 A2994 RMK A01 T02300160  RH  066%=      5-min Rain = 0
KANS 260655Z 16013G18KT 23/16 A2993 RMK A01 T02300160  RH  066%=      5-min Rain = 0
KANS 260700Z 16013G18KT 23/16 A2993 RMK A01 T02290160  RH  066%=      5-min Rain = 0
KANS 260705Z 16014G23KT 23/16 A2993 RMK A01 T02290160  RH  066%=      5-min Rain = 0
KANS 260710Z 16013G18KT 23/16 A2993 RMK A01 T02280160  RH  067%=      5-min Rain = 0
KANS 260715Z 16013G19KT 23/16 A2993 RMK A01 T02260160  RH  068%=      5-min Rain = 0
KANS 260720Z 16013G19KT 22/16 A2993 RMK A01 T02240160  RH  069%=      5-min Rain = 0
KANS 260725Z 16014G19KT 22/16 A2993 RMK A01 T02230160  RH  069%=      5-min Rain = 0
KANS 260730Z 16012G17KT 22/16 A2993 RMK A01 T02220160  RH  070%=      5-min Rain = 0
KANS 260735Z 16012KT 22/16 A2993 RMK A01 T02200161  RH  071%=      5-min Rain = 0
KANS 260740Z 16011KT 22/16 A2993 RMK A01 T02180161  RH  071%=      5-min Rain = 0
KANS 260745Z 15012KT 22/16 A2992 RMK A01 T02170161  RH  072%=      5-min Rain = 0
KANS 260750Z 15011KT 22/16 A2993 RMK A01 T02160161  RH  073%=      5-min Rain = 0
KANS 260755Z 15009KT 21/16 A2993 RMK A01 T02140161  RH  073%=      5-min Rain = 0
KANS 260800Z 14009KT 21/16 A2993 RMK A01 T02120161  RH  074%=      5-min Rain = 0
KANS 260805Z 15009KT 21/16 A2993 RMK A01 T02110161  RH  075%=      5-min Rain = 0
KANS 260810Z 15010KT 21/16 A2992 RMK A01 T02100161  RH  076%=      5-min Rain = 0
KANS 260815Z 15010G15KT 21/16 A2992 RMK A01 T02090161  RH  076%=      5-min Rain = 0
KANS 260820Z 15010KT 21/16 A2992 RMK A01 T02080161  RH  076%=      5-min Rain = 0
KANS 260825Z 15010KT 21/16 A2993 RMK A01 T02070161  RH  077%=      5-min Rain = 0
KANS 260830Z 15009KT 21/16 A2993 RMK A01 T02070161  RH  077%=      5-min Rain = 0
KANS 260835Z 15010KT 21/16 A2992 RMK A01 T02060162  RH  077%=      5-min Rain = 0
KANS 260840Z 15008KT 21/16 A2992 RMK A01 T02050162  RH  078%=      5-min Rain = 0
KANS 260845Z 15008KT 20/16 A2992 RMK A01 T02040162  RH  078%=      5-min Rain = 0
KANS 260850Z 15009KT 20/16 A2992 RMK A01 T02030162  RH  079%=      5-min Rain = 0
KANS 260855Z 15009KT 20/16 A2992 RMK A01 T02030162  RH  079%=      5-min Rain = 0
KANS 260900Z 15008KT 20/16 A2992 RMK A01 T02020162  RH  080%=      5-min Rain = 0
KANS 260905Z 15008KT 20/16 A2992 RMK A01 T02010162  RH  080%=      5-min Rain = 0
KANS 260910Z 15008KT 20/16 A2992 RMK A01 T02000163  RH  081%=      5-min Rain = 0
KANS 260915Z 15008KT 20/16 A2992 RMK A01 T02000163  RH  081%=      5-min Rain = 0
KANS 260920Z 15009KT 20/16 A2992 RMK A01 T01990164  RH  082%=      5-min Rain = 0
KANS 260925Z 15008G13KT 20/16 A2993 RMK A01 T01990164  RH  082%=      5-min Rain = 0
KANS 260930Z 15008KT 20/17 A2993 RMK A01 T01990165  RH  083%=      5-min Rain = 0
KANS 260935Z 16009KT 20/17 A2993 RMK A01 T01990166  RH  083%=      5-min Rain = 0
KANS 260940Z 16009KT 20/17 A2993 RMK A01 T02000168  RH  084%=      5-min Rain = 0
KANS 260945Z 16009KT 20/17 A2993 RMK A01 T02010169  RH  084%=      5-min Rain = 0
KANS 260950Z 16008KT 20/17 A2993 RMK A01 T02030170  RH  084%=      5-min Rain = 0
KANS 260955Z 16009KT 20/17 A2993 RMK A01 T02040171  RH  084%=      5-min Rain = 0
KANS 261000Z 16008KT 21/17 A2994 RMK A01 T02050172  RH  083%=      5-min Rain = 0
KANS 261005Z 16008KT 21/17 A2994 RMK A01 T02050172  RH  083%=      5-min Rain = 0
KANS 261010Z 16008KT 21/17 A2994 RMK A01 T02060173  RH  083%=      5-min Rain = 0
KANS 261015Z 16009KT 21/17 A2994 RMK A01 T02080174  RH  083%=      5-min Rain = 0
KANS 261020Z 16009KT 21/18 A2994 RMK A01 T02090176  RH  083%=      5-min Rain = 0
KANS 261025Z 16011G16KT 21/18 A2994 RMK A01 T02110177  RH  083%=      5-min Rain = 0
KANS 261030Z 16012KT 21/18 A2994 RMK A01 T02130177  RH  082%=      5-min Rain = 0
KANS 261035Z 17013G18KT 22/18 A2994 RMK A01 T02150176  RH  081%=      5-min Rain = 0
KANS 261040Z 17011KT 22/18 A2995 RMK A01 T02160176  RH  080%=      5-min Rain = 0
KANS 261045Z 17011G17KT 22/18 A2995 RMK A01 T02160176  RH  080%=      5-min Rain = 0
KANS 261050Z 17013KT 22/18 A2995 RMK A01 T02160176  RH  080%=      5-min Rain = 0
KANS 261055Z 17012G20KT 22/18 A2995 RMK A01 T02170175  RH  079%=      5-min Rain = 0
KANS 261100Z 17011G18KT 22/18 A2995 RMK A01 T02170175  RH  079%=      5-min Rain = 0
KANS 261105Z 16014G21KT 22/18 A2995 RMK A01 T02170175  RH  079%=      5-min Rain = 0
KANS 261110Z 16013G18KT 22/17 A2995 RMK A01 T02170174  RH  079%=      5-min Rain = 0
KANS 261115Z 16012KT 22/17 A2995 RMK A01 T02170174  RH  079%=      5-min Rain = 0
KANS 261120Z 16013G18KT 22/17 A2995 RMK A01 T02170174  RH  079%=      5-min Rain = 0
KANS 261125Z 16013G18KT 22/17 A2995 RMK A01 T02170174  RH  078%=      5-min Rain = 0
KANS 261130Z 16012G18KT 22/17 A2996 RMK A01 T02170174  RH  078%=      5-min Rain = 0
KANS 261135Z 16011G16KT 22/17 A2996 RMK A01 T02170174  RH  078%=      5-min Rain = 0
KANS 261140Z 15014KT 22/17 A2995 RMK A01 T02170174  RH  078%=      5-min Rain = 0
KANS 261145Z 15013G19KT 22/17 A2995 RMK A01 T02160174  RH  079%=      5-min Rain = 0
KANS 261150Z 15013G20KT 22/17 A2995 RMK A01 T02160174  RH  079%=      5-min Rain = 0
KANS 261155Z 15011G17KT 22/17 A2995 RMK A01 T02150174  RH  079%=      5-min Rain = 0
KANS 261200Z 15012G18KT 22/17 A2995 RMK A01 T02150174  RH  079%=      5-min Rain = 0
KANS 261205Z 16013G20KT 22/17 A2996 RMK A01 T02150173  RH  079%=      5-min Rain = 0
KANS 261210Z 15011G18KT 22/17 A2996 RMK A01 T02160173  RH  079%=      5-min Rain = 0
KANS 261215Z 15014KT 22/17 A2996 RMK A01 T02160174  RH  079%=      5-min Rain = 0
KANS 261220Z 15013G20KT 22/17 A2996 RMK A01 T02170174  RH  078%=      5-min Rain = 0
KANS 261225Z 15014G20KT 22/17 A2996 RMK A01 T02170174  RH  079%=      5-min Rain = 0
KANS 261230Z 15012KT 22/17 A2996 RMK A01 T02170174  RH  079%=      5-min Rain = 0
KANS 261235Z 15013G18KT 22/17 A2996 RMK A01 T02170174  RH  078%=      5-min Rain = 0
KANS 261240Z 15012KT 22/17 A2996 RMK A01 T02170174  RH  078%=      5-min Rain = 0
KANS 261245Z 15013G18KT 22/17 A2996 RMK A01 T02170174  RH  078%=      5-min Rain = 0
KANS 261250Z 15015G20KT 22/17 A2996 RMK A01 T02180174  RH  078%=      5-min Rain = 0
KANS 261255Z 16014G19KT 22/17 A2996 RMK A01 T02180174  RH  078%=      5-min Rain = 0
KANS 261300Z 15013KT 22/17 A2996 RMK A01 T02180174  RH  078%=      5-min Rain = 0
KANS 261305Z 15013G19KT 22/17 A2996 RMK A01 T02190174  RH  078%=      5-min Rain = 0
KANS 261310Z 15015G20KT 22/17 A2997 RMK A01 T02190173  RH  077%=      5-min Rain = 0
KANS 261315Z 16015G23KT 22/17 A2997 RMK A01 T02200173  RH  077%=      5-min Rain = 0
KANS 261320Z 15016G22KT 22/17 A2997 RMK A01 T02200174  RH  077%=      5-min Rain = 0
KANS 261325Z 15015G20KT 22/18 A2997 RMK A01 T02210175  RH  077%=      5-min Rain = 0
KANS 261330Z 15015G20KT 22/18 A2997 RMK A01 T02230175  RH  076%=      5-min Rain = 0
KANS 261335Z 15015G23KT 22/18 A2997 RMK A01 T02240175  RH  076%=      5-min Rain = 0
KANS 261340Z 16018G23KT 22/17 A2998 RMK A01 T02230174  RH  076%=      5-min Rain = 0
KANS 261345Z 16016G22KT 22/17 A2998 RMK A01 T02230174  RH  076%=      5-min Rain = 0
KANS 261350Z 16018G24KT 22/17 A2998 RMK A01 T02230174  RH  076%=      5-min Rain = 0
KANS 261355Z 16015G22KT 22/18 A2998 RMK A01 T02230175  RH  076%=      5-min Rain = 0
KANS 261400Z 16014G22KT 22/18 A2998 RMK A01 T02240175  RH  075%=      5-min Rain = 0
KANS 261405Z 16016G23KT 23/18 A2998 RMK A01 T02260175  RH  075%=      5-min Rain = 0
KANS 261410Z 16016G24KT 23/17 A2998 RMK A01 T02260174  RH  075%=      5-min Rain = 0
KANS 261415Z 16016G23KT 23/17 A2998 RMK A01 T02250174  RH  075%=      5-min Rain = 0
KANS 261420Z 16016G21KT 23/17 A2999 RMK A01 T02270174  RH  074%=      5-min Rain = 0
KANS 261425Z 16014G20KT 23/18 A2999 RMK A01 T02290176  RH  074%=      5-min Rain = 0
KANS 261430Z 16015G21KT 23/18 A2999 RMK A01 T02310176  RH  073%=      5-min Rain = 0
KANS 261435Z 16014G21KT 23/18 A2998 RMK A01 T02310175  RH  073%=      5-min Rain = 0
KANS 261440Z 16017G23KT 23/17 A2998 RMK A01 T02310174  RH  072%=      5-min Rain = 0
KANS 261445Z 16016G22KT 23/17 A2999 RMK A01 T02300174  RH  072%=      5-min Rain = 0
KANS 261450Z 16018G24KT 23/17 A2999 RMK A01 T02320174  RH  072%=      5-min Rain = 0
KANS 261455Z 16016G22KT 24/18 A2999 RMK A01 T02360175  RH  071%=      5-min Rain = 0
KANS 261500Z 15017G24KT 24/18 A2999 RMK A01 T02370175  RH  070%=      5-min Rain = 0
KANS 261505Z 16017G23KT 24/17 A2999 RMK A01 T02360174  RH  070%=      5-min Rain = 0
KANS 261510Z 16015G22KT 24/18 A2999 RMK A01 T02360175  RH  070%=      5-min Rain = 0
KANS 261515Z 15015G22KT 24/18 A2998 RMK A01 T02430175  RH  067%=      5-min Rain = 0
KANS 261520Z 16017G24KT 24/17 A2999 RMK A01 T02420173  RH  067%=      5-min Rain = 0
KANS 261525Z 16016G22KT 24/17 A2999 RMK A01 T02380174  RH  069%=      5-min Rain = 0
KANS 261530Z 16015G23KT 24/17 A2999 RMK A01 T02400174  RH  068%=      5-min Rain = 0
KANS 261535Z 16015G21KT 24/18 A2999 RMK A01 T02420175  RH  067%=      5-min Rain = 0
KANS 261540Z 15015G22KT 25/18 A2999 RMK A01 T02450175  RH  067%=      5-min Rain = 0
KANS 261545Z 17015G21KT 24/17 A2999 RMK A01 T02440173  RH  066%=      5-min Rain = 0
KANS 261550Z 16016G23KT 25/17 A2999 RMK A01 T02460174  RH  066%=      5-min Rain = 0
KANS 261555Z 16015G22KT 25/17 A2999 RMK A01 T02480174  RH  065%=      5-min Rain = 0
KANS 261600Z 15016G23KT 25/17 A2999 RMK A01 T02470173  RH  065%=      5-min Rain = 0
KANS 261605Z 15017G22KT 25/17 A2999 RMK A01 T02470173  RH  065%=      5-min Rain = 0
KANS 261610Z 16017G22KT 25/17 A2999 RMK A01 T02460174  RH  066%=      5-min Rain = 0
KANS 261615Z 16015G22KT 25/17 A2999 RMK A01 T02480174  RH  065%=      5-min Rain = 0
KANS 261620Z 16016G22KT 25/17 A2999 RMK A01 T02510173  RH  063%=      5-min Rain = 0
KANS 261625Z 16015G20KT 25/17 A2999 RMK A01 T02510173  RH  064%=      5-min Rain = 0
KANS 261630Z 17015G21KT 25/17 A2998 RMK A01 T02530174  RH  063%=      5-min Rain = 0
KANS 261635Z 17015G22KT 25/17 A2999 RMK A01 T02540174  RH  063%=      5-min Rain = 0
KANS 261640Z 17014G20KT 25/18 A2999 RMK A01 T02540175  RH  063%=      5-min Rain = 0
KANS 261645Z 17013G18KT 26/18 A2998 RMK A01 T02560175  RH  063%=      5-min Rain = 0
KANS 261650Z 16013G19KT 26/17 A2999 RMK A01 T02560174  RH  062%=      5-min Rain = 0
KANS 261655Z 17014G19KT 26/17 A2999 RMK A01 T02560174  RH  062%=      5-min Rain = 0
KANS 261700Z 17013G19KT 26/17 A2999 RMK A01 T02560174  RH  062%=      5-min Rain = 0
KANS 261705Z 16015G21KT 26/17 A2999 RMK A01 T02570174  RH  062%=      5-min Rain = 0
KANS 261710Z 16014G22KT 25/17 A2999 RMK A01 T02540174  RH  063%=      5-min Rain = 0
KANS 261715Z 16016G22KT 26/17 A2999 RMK A01 T02550174  RH  063%=      5-min Rain = 0
KANS 261720Z 17014G20KT 26/17 A2999 RMK A01 T02590174  RH  061%=      5-min Rain = 0
KANS 261725Z 16015G23KT 26/17 A2999 RMK A01 T02600174  RH  060%=      5-min Rain = 0
KANS 261730Z 17015G21KT 26/17 A2999 RMK A01 T02590174  RH  061%=      5-min Rain = 0
KANS 261735Z 16014G23KT 26/17 A2999 RMK A01 T02590174  RH  061%=      5-min Rain = 0
KANS 261740Z 18014G22KT 26/17 A30 RMK A01 T02580173  RH  061%=      5-min Rain = 0
KANS 261745Z 17013G18KT 26/17 A30 RMK A01 T02580174  RH  061%=      5-min Rain = 0
KANS 261750Z 17014G19KT 26/17 A30 RMK A01 T02590174  RH  061%=      5-min Rain = 0
KANS 261755Z 17014G20KT 26/17 A30 RMK A01 T02590174  RH  061%=      5-min Rain = 0
KANS 261800Z 17014G21KT 26/17 A30 RMK A01 T02600173  RH  060%=      5-min Rain = 0
KANS 261805Z 18013G18KT 26/17 A3001 RMK A01 T02570173  RH  061%=      5-min Rain = 0
KANS 261810Z 18014G19KT 26/17 A3001 RMK A01 T02570173  RH  061%=      5-min Rain = 0
KANS 261815Z 18013G18KT 26/17 A3001 RMK A01 T02570173  RH  062%=      5-min Rain = 0
KANS 261820Z 18012G17KT 26/17 A30 RMK A01 T02580174  RH  061%=      5-min Rain = 0
KANS 261825Z 17012G17KT 26/17 A30 RMK A01 T02590173  RH  061%=      5-min Rain = 0
KANS 261830Z 18012G17KT 26/17 A30 RMK A01 T02570173  RH  061%=      5-min Rain = 0
KANS 261835Z 18012KT 26/17 A30 RMK A01 T02570174  RH  061%=      5-min Rain = 0
KANS 261840Z 18010G15KT 26/17 A30 RMK A01 T02590174  RH  061%=      5-min Rain = 0
KANS 261845Z 18011KT 26/17 A30 RMK A01 T02590174  RH  061%=      5-min Rain = 0
KANS 261850Z 18010G15KT 26/17 A30 RMK A01 T02610174  RH  060%=      5-min Rain = 0
KANS 261855Z 18010G16KT 26/17 A30 RMK A01 T02620174  RH  060%=      5-min Rain = 0
KANS 261900Z 17012G18KT 26/17 A30 RMK A01 T02610174  RH  060%=      5-min Rain = 0
KANS 261905Z 18011G18KT 26/17 A3001 RMK A01 T02610174  RH  060%=      5-min Rain = 0
KANS 261910Z 18011KT 26/18 A3001 RMK A01 T02620176  RH  061%=      5-min Rain = 0
KANS 261915Z 18012G17KT 26/18 A30 RMK A01 T02620175  RH  060%=      5-min Rain = 0
KANS 261920Z 17011G17KT 26/18 A30 RMK A01 T02600175  RH  061%=      5-min Rain = 0
KANS 261925Z 17010KT 26/17 A2999 RMK A01 T02600174  RH  060%=      5-min Rain = 0
KANS 261930Z 17012KT 26/17 A2999 RMK A01 T02610174  RH  060%=      5-min Rain = 0
KANS 261935Z 17010G15KT 26/17 A2998 RMK A01 T02620174  RH  060%=      5-min Rain = 0
KANS 261940Z 16011KT 26/18 A2998 RMK A01 T02610175  RH  060%=      5-min Rain = 0
KANS 261945Z 16011KT 26/18 A2998 RMK A01 T02610175  RH  061%=      5-min Rain = 0
KANS 261950Z 15010G15KT 26/18 A2997 RMK A01 T02620176  RH  061%=      5-min Rain = 0
KANS 261955Z 13013KT 26/18 A2996 RMK A01 T02610176  RH  061%=      5-min Rain = 0
KANS 262000Z 14012KT 26/18 A2996 RMK A01 T02620176  RH  061%=      5-min Rain = 0
KANS 262005Z 15010KT 26/18 A2996 RMK A01 T02640176  RH  060%=      5-min Rain = 0
KANS 262010Z 17013G20KT 27/18 A2998 RMK A01 T02650176  RH  060%=      5-min Rain = 0
KANS 262015Z 16015G20KT 26/18 A2998 RMK A01 T02620176  RH  061%=      5-min Rain = 0
KANS 262020Z 15011G18KT 26/18 A2996 RMK A01 T02610176  RH  061%=      5-min Rain = 0
KANS 262025Z 17015G22KT 26/18 A2998 RMK A01 T02620177  RH  061%=      5-min Rain = 0
KANS 262030Z 17014G20KT 26/18 A2997 RMK A01 T02620176  RH  061%=      5-min Rain = 0
KANS 262035Z 17014G20KT 26/18 A2998 RMK A01 T02600177  RH  061%=      5-min Rain = 0
KANS 262040Z 16012G18KT 26/18 A2996 RMK A01 T02610177  RH  061%=      5-min Rain = 0
KANS 262045Z 16012G17KT 26/18 A2997 RMK A01 T02620177  RH  061%=      5-min Rain = 0
KANS 262050Z 15016G22KT 26/18 A2998 RMK A01 T02610179  RH  062%=      5-min Rain = 0
KANS 262055Z 16015G24KT 26/18 A2997 RMK A01 T02600179  RH  062%=      5-min Rain = 0
KANS 262100Z 15017G24KT 26/18 A2996 RMK A01 T02610178  RH  062%=      5-min Rain = 0
KANS 262105Z 14015G22KT 26/18 A2995 RMK A01 T02600179  RH  062%=      5-min Rain = 0
KANS 262110Z 14015G22KT 26/18 A2995 RMK A01 T02570180  RH  064%=      5-min Rain = 0
KANS 262115Z 14016G21KT 26/18 A2995 RMK A01 T02560180  RH  064%=      5-min Rain = 0
KANS 262120Z 15015G20KT 26/18 A2994 RMK A01 T02570178  RH  063%=      5-min Rain = 0
KANS 262125Z 14013G18KT 26/18 A2993 RMK A01 T02600179  RH  062%=      5-min Rain = 0
KANS 262130Z 14013G19KT 26/18 A2992 RMK A01 T02600180  RH  063%=      5-min Rain = 0
KANS 262135Z 13015G22KT 26/18 A2992 RMK A01 T02600180  RH  063%=      5-min Rain = 0
KANS 262140Z 13018G24KT 26/18 A299 RMK A01 T02580180  RH  063%=      5-min Rain = 0
KANS 262145Z 13019G27KT 26/18 A299 RMK A01 T02570179  RH  064%=      5-min Rain = 0
KANS 262150Z 13016G25KT 26/18 A2989 RMK A01 T02570180  RH  064%=      5-min Rain = 0
KANS 262155Z 13017G28KT 26/18 A2988 RMK A01 T02560180  RH  064%=      5-min Rain = 0
KANS 262200Z 13016G24KT 26/18 A2988 RMK A01 T02550180  RH  065%=      5-min Rain = 0
KANS 262205Z 13017G27KT 25/18 A2989 RMK A01 T02530180  RH  066%=      5-min Rain = 0
KANS 262210Z 14017G24KT 25/18 A2989 RMK A01 T02530180  RH  065%=      5-min Rain = 0
KANS 262215Z 15016G23KT 25/18 A299 RMK A01 T02520179  RH  065%=      5-min Rain = 0
KANS 262220Z 15015G24KT 25/18 A299 RMK A01 T02530178  RH  065%=      5-min Rain = 0
KANS 262225Z 16015G23KT 26/18 A2991 RMK A01 T02550178  RH  064%=      5-min Rain = 0
KANS 262230Z 15015G24KT 26/18 A2991 RMK A01 T02580179  RH  063%=      5-min Rain = 0
KANS 262235Z 15014G19KT 26/18 A2991 RMK A01 T02620179  RH  062%=      5-min Rain = 0
KANS 262240Z 16013G19KT 27/18 A2991 RMK A01 T02670179  RH  060%=      5-min Rain = 0
KANS 262245Z 16014G22KT 27/18 A2991 RMK A01 T02670178  RH  060%=      5-min Rain = 0
KANS 262250Z 16013G18KT 27/18 A2991 RMK A01 T02650178  RH  061%=      5-min Rain = 0
KANS 262255Z 16014G20KT 27/18 A2991 RMK A01 T02670178  RH  060%=      5-min Rain = 0
KANS 262300Z 16014G19KT 27/18 A2992 RMK A01 T02650179  RH  060%=      5-min Rain = 0
KANS 262305Z 16013G18KT 27/18 A2992 RMK A01 T02670178  RH  060%=      5-min Rain = 0
KANS 262310Z 15015G22KT 27/18 A2991 RMK A01 T02670178  RH  059%=      5-min Rain = 0
KANS 262315Z 16016G22KT 27/18 A2991 RMK A01 T02660176  RH  059%=      5-min Rain = 0
KANS 262320Z 16016G22KT 27/18 A2991 RMK A01 T02670175  RH  059%=      5-min Rain = 0
KANS 262325Z 16016G23KT 27/18 A299 RMK A01 T02660175  RH  059%=      5-min Rain = 0
KANS 262330Z 16016G22KT 27/17 A299 RMK A01 T02650174  RH  059%=      5-min Rain = 0
KANS 262335Z 15016G23KT 27/17 A2989 RMK A01 T02650174  RH  059%=      5-min Rain = 0
KANS 262340Z 15015G22KT 26/17 A2989 RMK A01 T02640174  RH  059%=      5-min Rain = 0
KANS 262345Z 15013G20KT 27/17 A2989 RMK A01 T02670174  RH  058%=      5-min Rain = 0
KANS 262350Z 16016G22KT 27/17 A2989 RMK A01 T02690173  RH  057%=      5-min Rain = 0
KANS 262355Z 16015G21KT 27/17 A2989 RMK A01 T02730174  RH  056%=      5-min Rain = 0
KANS 270000Z 15016G24KT 28/17 A2989 RMK A01 T02750173  RH  055%=      5-min Rain = 0
KANS 270005Z 15015G20KT 27/17 A2989 RMK A01 T02740173  RH  055%=      5-min Rain = 0
KANS 270010Z 15014G21KT 28/17 A2988 RMK A01 T02750172  RH  055%=      5-min Rain = 0
KANS 270015Z 14016G22KT 27/17 A2988 RMK A01 T02740170  RH  054%=      5-min Rain = 0
KANS 270020Z 15016G25KT 27/17 A2988 RMK A01 T02720171  RH  055%=      5-min Rain = 0
KANS 270025Z 15015G24KT 27/17 A2988 RMK A01 T02720171  RH  055%=      5-min Rain = 0
KANS 270030Z 15016G22KT 27/17 A2988 RMK A01 T02700171  RH  056%=      5-min Rain = 0
KANS 270035Z 15014G20KT 27/17 A2988 RMK A01 T02700172  RH  056%=      5-min Rain = 0
KANS 270040Z 15016G23KT 27/17 A2988 RMK A01 T02680171  RH  056%=      5-min Rain = 0
KANS 270045Z 15017G23KT 27/17 A2988 RMK A01 T02660170  RH  057%=      5-min Rain = 0
KANS 270050Z 15016G22KT 26/17 A2988 RMK A01 T02640169  RH  057%=      5-min Rain = 0
KANS 270055Z 15014G20KT 26/17 A2987 RMK A01 T02630169  RH  058%=      5-min Rain = 0
KANS 270100Z 15018G24KT 26/17 A2987 RMK A01 T02620168  RH  057%=      5-min Rain = 0
KANS 270105Z 15017G24KT 26/17 A2987 RMK A01 T02610168  RH  058%=      5-min Rain = 0
KANS 270110Z 15014G20KT 26/17 A2987 RMK A01 T02590169  RH  059%=      5-min Rain = 0
KANS 270115Z 15016G23KT 26/17 A2987 RMK A01 T02580169  RH  059%=      5-min Rain = 0
KANS 270120Z 15014G19KT 26/17 A2988 RMK A01 T02570170  RH  060%=      5-min Rain = 0
KANS 270125Z 15013G19KT 26/17 A2988 RMK A01 T02550171  RH  061%=      5-min Rain = 0
KANS 270130Z 15014G21KT 25/17 A2988 RMK A01 T02540171  RH  062%=      5-min Rain = 0
KANS 270135Z 16018G27KT 25/17 A2988 RMK A01 T02530169  RH  061%=      5-min Rain = 0
KANS 270140Z 16017G26KT 25/17 A2988 RMK A01 T02520169  RH  061%=      5-min Rain = 0
KANS 270145Z 15017G24KT 25/17 A2988 RMK A01 T02500169  RH  062%=      5-min Rain = 0
KANS 270150Z 16017G24KT 25/17 A2988 RMK A01 T02480169  RH  063%=      5-min Rain = 0
KANS 270155Z 16014G20KT 25/17 A2988 RMK A01 T02460170  RH  064%=      5-min Rain = 0
KANS 270200Z 15014G21KT 25/17 A2987 RMK A01 T02450170  RH  064%=      5-min Rain = 0
KANS 270205Z 16017G23KT 24/17 A2987 RMK A01 T02440169  RH  064%=      5-min Rain = 0
KANS 270210Z 16015G20KT 24/17 A2987 RMK A01 T02440168  RH  064%=      5-min Rain = 0
KANS 270215Z 16015G20KT 24/17 A2987 RMK A01 T02430168  RH  065%=      5-min Rain = 0
KANS 270220Z 16013KT 24/17 A2988 RMK A01 T02420167  RH  065%=      5-min Rain = 0
KANS 270225Z 16014G20KT 24/17 A2988 RMK A01 T02410166  RH  065%=      5-min Rain = 0
KANS 270230Z 16014G21KT 24/17 A2988 RMK A01 T02410165  RH  064%=      5-min Rain = 0
KANS 270235Z 16013G18KT 24/17 A2988 RMK A01 T02400165  RH  064%=      5-min Rain = 0
KANS 270240Z 16015G22KT 24/16 A2988 RMK A01 T02400164  RH  064%=      5-min Rain = 0
KANS 270245Z 16015G22KT 24/16 A2987 RMK A01 T02400163  RH  063%=      5-min Rain = 0
KANS 270250Z 16015G21KT 24/16 A2987 RMK A01 T02400163  RH  063%=      5-min Rain = 0
KANS 270255Z 16014G20KT 24/16 A2987 RMK A01 T02390162  RH  063%=      5-min Rain = 0
KANS 270300Z 16013G18KT 24/16 A2987 RMK A01 T02380162  RH  064%=      5-min Rain = 0
KANS 270305Z 16012KT 24/16 A2987 RMK A01 T02370162  RH  064%=      5-min Rain = 0
KANS 270310Z 17013G22KT 24/16 A2988 RMK A01 T02370162  RH  064%=      5-min Rain = 0
KANS 270315Z 17012G20KT 24/16 A2987 RMK A01 T02360161  RH  064%=      5-min Rain = 0
KANS 270320Z 17014KT 24/16 A2987 RMK A01 T02360161  RH  064%=      5-min Rain = 0
KANS 270325Z 17015KT 24/16 A2988 RMK A01 T02360160  RH  064%=      5-min Rain = 0
KANS 270330Z 17014G20KT 24/16 A2988 RMK A01 T02360160  RH  064%=      5-min Rain = 0
KANS 270335Z 17016G24KT 24/16 A2988 RMK A01 T02360160  RH  064%=      5-min Rain = 0
KANS 270340Z 17014G20KT 24/16 A2988 RMK A01 T02360160  RH  064%=      5-min Rain = 0
KANS 270345Z 17013G19KT 23/16 A2987 RMK A01 T02340159  RH  064%=      5-min Rain = 0
KANS 270350Z 17012G17KT 23/16 A2987 RMK A01 T02330159  RH  065%=      5-min Rain = 0
KANS 270355Z 17012G18KT 23/16 A2987 RMK A01 T02320159  RH  065%=      5-min Rain = 0
KANS 270400Z 17012G17KT 23/16 A2987 RMK A01 T02320158  RH  065%=      5-min Rain = 0
KANS 270405Z 17012G17KT 23/16 A2987 RMK A01 T02320158  RH  065%=      5-min Rain = 0
KANS 270410Z 17012G18KT 23/16 A2987 RMK A01 T02310158  RH  065%=      5-min Rain = 0
KANS 270415Z 17012G17KT 23/16 A2987 RMK A01 T02310157  RH  065%=      5-min Rain = 0
KANS 270420Z 17011G17KT 23/16 A2988 RMK A01 T02300157  RH  065%=      5-min Rain = 0
KANS 270425Z 17013G18KT 23/16 A2988 RMK A01 T02290156  RH  065%=      5-min Rain = 0
KANS 270430Z 17013G18KT 23/16 A2988 RMK A01 T02290156  RH  065%=      5-min Rain = 0
KANS 270435Z 17014G20KT 23/16 A2988 RMK A01 T02290156  RH  065%=      5-min Rain = 0
KANS 270440Z 17015G24KT 23/16 A2988 RMK A01 T02290155  RH  064%=      5-min Rain = 0
KANS 270445Z 17017G26KT 23/16 A2988 RMK A01 T02300155  RH  064%=      5-min Rain = 0
KANS 270450Z 17017G25KT 23/16 A2988 RMK A01 T02310156  RH  064%=      5-min Rain = 0
KANS 270455Z 17017G26KT 23/16 A2988 RMK A01 T02300156  RH  065%=      5-min Rain = 0

Page generated in 0.0091 seconds.